This is the latest recevied weather packets stored in our database for station/object HP1CDW-13. If no packets are shown the sender has not sent any weather packets the latest 10 day(s).
| Time | Temp. | Humidity | Pressure | Rain* | Wind** | Luminosity | Snow |
|---|---|---|---|---|---|---|---|
| 1777839890 | 26.67° C | 88% | 1013.8 hPa | 0 mm | - | - | - |
| 1777839290 | 26.67° C | 88% | 1014 hPa | 0 mm | - | - | - |
| 1777838690 | 26.67° C | 88% | 1014.1 hPa | 0 mm | - | - | - |
| 1777838090 | 26.67° C | 88% | 1013.9 hPa | 0 mm | - | - | - |
| 1777837490 | 26.67° C | 87% | 1013.8 hPa | 0 mm | - | - | - |
| 1777836890 | 26.67° C | 87% | 1014.2 hPa | 0 mm | - | - | - |
| 1777836290 | 26.67° C | 87% | 1014 hPa | 0.25 mm | - | - | - |
| 1777835690 | 27.22° C | 84% | 1013.9 hPa | 0.76 mm | - | - | - |
| 1777835090 | 27.22° C | 85% | 1014.3 hPa | 0.76 mm | - | - | - |
| 1777834490 | 26.67° C | 86% | 1014.7 hPa | 0.76 mm | - | - | - |
| 1777833890 | 26.67° C | 86% | 1015 hPa | 0.76 mm | - | - | - |
| 1777833290 | 26.67° C | 89% | 1015 hPa | 0.76 mm | - | - | - |
| 1777832690 | 26.67° C | 88% | 1015.6 hPa | 0.51 mm | - | - | - |
| 1777832090 | 27.78° C | 83% | 1015.5 hPa | 0 mm | - | - | - |
| 1777831490 | 30° C | 78% | 1015.5 hPa | 0 mm | - | - | - |
| 1777830890 | 30.56° C | 77% | 1015.5 hPa | 0 mm | - | - | - |
| 1777830290 | 31.11° C | 75% | 1015.6 hPa | 0 mm | - | - | - |
| 1777829690 | 30.56° C | 75% | 1015.2 hPa | 0 mm | - | - | - |
| 1777829090 | 30.56° C | 75% | 1015.4 hPa | 0 mm | - | - | - |
| 1777828490 | 30.56° C | 75% | 1015.4 hPa | 0 mm | - | - | - |
| 1777827890 | 30.56° C | 75% | 1015.6 hPa | 0 mm | - | - | - |
| 1777827290 | 30° C | 77% | 1016 hPa | 0 mm | - | - | - |
| 1777826690 | 30.56° C | 75% | 1015.8 hPa | 0 mm | - | - | - |
| 1777826090 | 30° C | 76% | 1016.2 hPa | 0 mm | - | - | - |
| 1777825490 | 30° C | 78% | 1016.2 hPa | 0 mm | - | - | - |
* Rain latest hour (hover to see other rain measurements)
** Current wind speed in m/s (hover to see current wind gust speed)